Detall de PIREP

Printer-friendly versionPDF version

[2013/09/24 08:28:00]
Flight IATA:CT3107
Pilot Number:012
Company ICAO:CAT
Aircraft Type:AT72/F
PAX:68
Departing Airport: LEVC
Destination Airport: LIEA
Alternate Airport:LIEO
Online: VATSIM
Route:ORVUS M871 PTC N851 MHN A33 MORSS M603 ELSAG
Flight Level:F180
No Slew and time accel
No pause
Crash detect
Detect pilot in Cockpit between each 30 and 45 minutes
08:28 Zero fuel Weight: 43315 Lbs, Fuel Weight: 5152 Lbs
08:28 VATSIM:LEVC 240800Z 00000KT 9999 FEW040 23/17 Q1016 NOSIG
08:28 VATSIM:LIEA 240820Z 19003KT 150V230 CAVOK 22/15 Q1019
08:28 VOICE CATALONIAN
08:33 Parking Brakes off
08:39 Take-off
08:39 Take off Weight: 48384 Lbs
08:39 Wind: 000º @ 000 Knots Heading: 114º
08:39 POS N39º 29´ 27´´ W000º 29´ 10´´
08:39 Gear Up: 129 Knots
08:39 Flaps:1 at 129 Knots
08:39 Flaps:0 at 154 Knots
08:54 Wind:253º@003 Knots Heading: 086º Ground Speed: 239 Knots Altitude 17509 ft
08:54 TOC
08:54 Fuel Weight: 4576 Lb
09:09 Wind:270º@001 Knots Heading: 087º Ground Speed: 278 Knots Altitude 18110 ft
09:24 Wind:267º@001 Knots Heading: 059º Ground Speed: 282 Knots Altitude 18136 ft
09:39 Wind:185º@001 Knots Heading: 073º Ground Speed: 280 Knots Altitude 18136 ft
09:54 Wind:118º@007 Knots Heading: 075º Ground Speed: 275 Knots Altitude 18139 ft
10:03 TOD
10:03 Fuel Weight: 2686 Lb
10:09 Wind:127º@004 Knots Heading: 084º Ground Speed: 272 Knots Altitude 10183 ft
10:19 Flaps:1 at 154 Knots
10:19 Gear Down: 146 Knots
10:20 Flaps:2 at 147 Knots
10:21 TouchDown:Rate -155 ft/min Speed: 117 Knots
10:22 Flaps:1 at 83 Knots
10:22 VATSIM:LIEA 240950Z 19004KT CAVOK 25/15 Q1019
10:22 Land
10:22 Wind:358º@003 Knots
10:22 Heading: 204º
10:22 Flight Duration: 01:43
10:22 Landing Weight: 45738 Lbs
10:22 POS N40º 37´ 48´´ E008º 17´ 22´´
10:25 Parking brakes on
10:25 Block to Block Duration: 01:52
10:25 Final Fuel: 2403 Lbls
10:25 Spent Fuel: 2749 Lbls
10:25 Flight Length: 446 NM
10:25 TOD Land Length: 72 NM

Exportar CSV

Powered by Drupal - Modified by Danger4k